Flight Track Log - Related Links

Times and Time Zones

All times are in EDT time to prevent confusion due to time zone crossing. See the RPA3228 flight status page for this flight to view local times or setup timezone preferences in your user account.

Time Position Orientation Groundspeed Altitude Reporting Facility
EDT Latitude Longitude Course Direction KTS MPH feet Rate Location/Type
Wed 10:35:22 AM 38.7833 -77.0333 North 212 244 2,800  Level Potomac TRACON
Wed 10:37:00 AM 39.2381 -77.1885 333° Northwest  Level Estimated
Wed 10:37:23 AM 38.7167 -77.1833 240° Southwest 291 335 8,000  Level Potomac TRACON
Wed 10:38:00 AM 39.3346 -77.2265 339° North  Level Estimated
Wed 10:38:23 AM 38.7833 -77.2500 322° Northwest 313 360 10,600  Level Potomac TRACON
Wed 10:39:00 AM 39.4311 -77.2646 339° North  Level Estimated
Wed 10:40:00 AM 39.5146 -77.2976 North  Level Estimated
Wed 10:41:10 AM 38.9997 -77.4186 329° Northwest 354 407 12,900  Level Washington Center
Wed 10:42:08 AM 39.0864 -77.4661 337° Northwest 349 402 15,500 2,163 Climbing Washington Center
Wed 10:44:02 AM 39.2731 -77.4603 North 365 420 19,100 1,828 Climbing New York Center
Wed 10:45:02 AM 39.3753 -77.4619 359° North 365 420 20,800 1,650 Climbing New York Center
Wed 10:46:02 AM 39.4839 -77.4586 North 370 426 22,400 1,550 Climbing New York Center
Wed 10:47:02 AM 39.5964 -77.4586 360° North 387 445 23,900 1,400 Climbing New York Center
Wed 10:48:02 AM 39.7114 -77.4558 North 399 459 25,200 1,050 Climbing New York Center
Wed 10:49:02 AM 39.8261 -77.4533 North 409 471 26,000 400 Climbing New York Center
Wed 10:50:02 AM 39.9397 -77.4722 353° North 414 476 26,000  Level New York Center
Wed 10:51:02 AM 40.0564 -77.5133 345° North 419 482 26,000  Level New York Center
Wed 10:52:02 AM 40.1728 -77.5572 344° North 431 496 26,000  Level New York Center
Wed 10:53:02 AM 40.2911 -77.6014 344° North 436 502 26,000  Level New York Center
Wed 10:54:02 AM 40.4094 -77.6458 344° North 442 509 26,000  Level New York Center
Wed 10:55:02 AM 40.5319 -77.6908 344° North 447 514 26,000  Level New York Center
Wed 10:57:11 AM 40.7814 -77.7889 343° North 441 507 26,000  Level Cleveland Center
Wed 10:58:11 AM 40.8992 -77.8358 343° North 436 502 26,000  Level Cleveland Center
Wed 10:59:11 AM 41.0172 -77.8806 344° North 436 502 26,000  Level Cleveland Center
Wed 11:00:11 AM 41.1328 -77.9228 345° North 436 502 26,000  Level Cleveland Center
Wed 11:01:11 AM 41.2506 -77.9703 343° North 436 502 26,000  Level Cleveland Center
Wed 11:02:11 AM 41.3811 -78.0233 343° North 443 510 26,000 -300 Level Cleveland Center
Wed 11:03:11 AM 41.4989 -78.0686 344° North 443 510 25,400 -1,150 Descending Cleveland Center
Wed 11:04:11 AM 41.6125 -78.1142 343° North 438 504 23,700 -1,650 Descending Cleveland Center
Wed 11:05:11 AM 41.7261 -78.1597 343° North 432 497 22,100 -1,600 Descending Cleveland Center
Wed 11:06:11 AM 41.8311 -78.2006 344° North 413 475 20,500 -1,550 Descending Cleveland Center
Wed 11:07:11 AM 41.9364 -78.2469 342° North 401 461 19,000 -1,550 Descending Cleveland Center
Wed 11:08:11 AM 42.0392 -78.2878 344° North 396 456 17,400 -1,550 Descending Cleveland Center
Wed 11:09:11 AM 42.1381 -78.3261 344° North 376 433 15,900 -1,600 Descending Cleveland Center
Wed 11:10:11 AM 42.2389 -78.3647 344° North 376 433 14,200 -1,650 Descending Cleveland Center
Wed 11:11:11 AM 42.3353 -78.4033 344° North 371 427 12,600 -1,550 Descending Cleveland Center
Wed 11:12:11 AM 42.4300 -78.4425 343° North 366 421 11,100 -1,450 Descending Cleveland Center
Wed 11:13:11 AM 42.5139 -78.4733 345° North 338 389 9,700 -1,550 Descending Cleveland Center
Wed 11:14:11 AM 42.5936 -78.5075 342° North 313 360 8,000 -1,700 Descending Cleveland Center
Wed 11:15:11 AM 42.6714 -78.5444 341° North 295 339 6,300 -1,650 Descending Cleveland Center
Wed 11:16:11 AM 42.7467 -78.5447 360° North 281 323 4,700 -1,150 Descending Cleveland Center
Wed 11:17:11 AM 42.8153 -78.5369 North 271 312 4,000 -650 Descending Cleveland Center
Wed 11:18:11 AM 42.8964 -78.5314 North 264 304 3,400 -850 Descending Cleveland Center
Wed 11:19:11 AM 42.9589 -78.5264 North 240 276 2,300 -431 Descending Cleveland Center
Wed 11:20:44 AM 43.0167 -78.5833 324° Northwest 165 190 2,300 -75 Level Buffalo TRACON
Wed 11:21:50 AM 43.0000 -78.6500 251° West 146 168 2,100 -381 Descending Buffalo TRACON
Wed 11:22:50 AM 42.9833 -78.6833 236° Southwest 110 127 1,500 -600 Descending Buffalo TRACON
Wed 11:23:50 AM 42.9500 -78.7167 216° Southwest 107 123 900 -600 Descending Buffalo TRACON
Wed 11:25:00 AM 42.9333 -78.7167 216° Southwest  Level FlightAware Approximate

Login

Don't have an account? Register now (free) for customized features, flight alerts, and more!